createdAt,value
2023-02-01T00:01:38.538Z,73.35
2023-02-01T00:04:07.651Z,82.88
2023-02-01T00:06:36.491Z,85.95
2023-02-01T00:09:05.780Z,80.88
2023-02-01T00:11:34.563Z,87.63
2023-02-01T00:14:04.279Z,93.22
2023-02-01T00:16:34.384Z,83.43
2023-02-01T00:19:09.417Z,88.50
2023-02-01T00:21:38.259Z,93.50
2023-02-01T00:24:07.480Z,90.70
2023-02-01T00:26:39.008Z,91.88
2023-02-01T00:29:12.677Z,91.85
2023-02-01T00:31:41.883Z,96.65
2023-02-01T00:34:13.776Z,96.97
2023-02-01T00:36:43.445Z,94.68
2023-02-01T00:39:13.209Z,95.53
2023-02-01T00:41:42.479Z,89.82
2023-02-01T00:44:11.496Z,99.07
2023-02-01T00:46:40.315Z,99.93
2023-02-01T00:49:11.002Z,103.35
2023-02-01T00:51:39.737Z,101.93
2023-02-01T00:54:08.444Z,104.07
2023-02-01T00:56:37.129Z,105.40
2023-02-01T00:59:05.889Z,119.47
2023-02-01T01:01:34.661Z,108.18
2023-02-01T01:04:03.480Z,114.35
2023-02-01T01:06:35.106Z,118.38
2023-02-01T01:09:06.741Z,115.55
2023-02-01T01:11:39.407Z,113.60
2023-02-01T01:14:09.966Z,111.47
2023-02-01T01:16:39.013Z,112.18
2023-02-01T01:19:08.828Z,119.85
2023-02-01T01:21:37.604Z,123.43
2023-02-01T01:24:06.739Z,112.93
2023-02-01T01:26:35.825Z,106.80
2023-02-01T01:29:04.683Z,98.25
2023-02-01T01:31:34.129Z,97.95
2023-02-01T01:34:04.232Z,96.50
2023-02-01T01:36:33.066Z,94.50
2023-02-01T01:39:02.108Z,95.55
2023-02-01T01:41:34.201Z,93.82
2023-02-01T01:44:07.508Z,94.68
2023-02-01T01:46:43.006Z,92.20
2023-02-01T01:49:15.382Z,96.30
2023-02-01T01:51:52.478Z,96.30
2023-02-01T01:54:30.605Z,89.53
2023-02-01T01:57:03.396Z,88.63
2023-02-01T01:59:43.116Z,86.40
2023-02-01T02:02:12.964Z,90.43
2023-02-01T02:04:42.101Z,85.38
2023-02-01T02:07:16.769Z,84.18
2023-02-01T02:09:59.535Z,81.53
2023-02-01T02:12:32.770Z,79.30
2023-02-01T02:15:07.371Z,81.25
2023-02-01T02:17:52.439Z,78.90
2023-02-01T02:21:00.496Z,83.90
2023-02-01T02:23:57.380Z,79.70
2023-02-01T02:26:34.279Z,80.35
2023-02-01T02:29:28.762Z,81.43
2023-02-01T02:32:33.369Z,80.93
2023-02-01T02:35:31.096Z,87.50
2023-02-01T02:38:16.834Z,87.85
2023-02-01T02:41:07.102Z,78.68
2023-02-01T02:44:18.326Z,84.88
2023-02-01T02:47:15.629Z,88.35
2023-02-01T02:50:14.722Z,89.32
2023-02-01T02:53:10.389Z,87.88
2023-02-01T02:55:42.721Z,89.18
2023-02-01T02:58:34.565Z,85.65
2023-02-01T03:01:25.466Z,90.60
2023-02-01T03:04:15.404Z,86.55
2023-02-01T03:06:44.429Z,87.78
2023-02-01T03:09:26.102Z,85.38
2023-02-01T03:12:21.046Z,78.10
2023-02-01T03:14:54.979Z,72.72
2023-02-01T03:17:33.561Z,66.95
2023-02-01T03:20:05.749Z,67.25
2023-02-01T03:22:36.455Z,63.35
2023-02-01T03:25:11.281Z,62.72
2023-02-01T03:27:49.899Z,57.08
2023-02-01T03:30:27.960Z,52.65
2023-02-01T03:33:01.738Z,54.70
2023-02-01T03:35:51.839Z,54.75
2023-02-01T03:38:24.654Z,51.97
2023-02-01T03:41:02.203Z,54.30
2023-02-01T03:43:36.515Z,55.00
2023-02-01T03:46:12.028Z,49.53
2023-02-01T03:48:41.723Z,47.05
2023-02-01T03:51:13.097Z,45.35
2023-02-01T03:53:44.132Z,41.88
2023-02-01T03:56:13.743Z,46.72
2023-02-01T03:58:42.493Z,44.10
2023-02-01T04:01:11.211Z,44.95
2023-02-01T04:03:40.424Z,42.30
2023-02-01T04:06:09.293Z,38.67
2023-02-01T04:08:38.429Z,38.10
2023-02-01T04:11:07.177Z,34.95
2023-02-01T04:13:36.111Z,41.13
2023-02-01T04:16:05.936Z,40.88
2023-02-01T04:18:34.755Z,41.75
2023-02-01T04:21:04.242Z,41.97
2023-02-01T04:23:34.315Z,37.53
2023-02-01T04:26:07.632Z,31.67
2023-02-01T04:28:36.601Z,29.85
2023-02-01T04:31:05.627Z,36.85
2023-02-01T04:33:40.896Z,33.80
2023-02-01T04:36:09.939Z,31.88
2023-02-01T04:38:38.837Z,33.55
2023-02-01T04:41:08.043Z,31.00
2023-02-01T04:43:36.957Z,30.80
2023-02-01T04:46:06.884Z,28.45
2023-02-01T04:48:35.849Z,29.58
2023-02-01T04:51:04.906Z,30.35
2023-02-01T04:53:36.909Z,30.88
2023-02-01T04:56:06.231Z,30.52
2023-02-01T04:58:35.126Z,30.75
2023-02-01T05:01:06.758Z,32.13
2023-02-01T05:03:37.947Z,31.80
2023-02-01T05:06:07.076Z,33.58
2023-02-01T05:08:37.866Z,33.25
2023-02-01T05:11:08.403Z,31.48
2023-02-01T05:13:52.439Z,31.15
2023-02-01T05:16:21.411Z,33.10
2023-02-01T05:18:50.347Z,30.63
2023-02-01T05:21:19.368Z,33.00
2023-02-01T05:24:08.319Z,32.08
2023-02-01T05:26:37.250Z,32.95
2023-02-01T05:29:07.545Z,31.23
2023-02-01T05:31:40.341Z,44.90
2023-02-01T05:36:38.086Z,34.45
2023-02-01T05:39:07.125Z,34.15
2023-02-01T05:41:36.101Z,33.45
2023-02-01T05:44:05.608Z,34.10
2023-02-01T05:46:34.553Z,33.53
2023-02-01T05:49:03.387Z,32.53
2023-02-01T05:51:32.286Z,34.38
2023-02-01T05:54:01.017Z,31.13
2023-02-01T05:56:29.883Z,34.03
2023-02-01T05:58:58.907Z,30.52
2023-02-01T06:01:27.751Z,30.52
2023-02-01T06:03:56.691Z,30.98
2023-02-01T06:06:25.491Z,33.05
2023-02-01T06:08:54.323Z,32.45
2023-02-01T06:11:32.510Z,32.72
2023-02-01T06:14:02.855Z,32.38
2023-02-01T06:16:33.660Z,30.23
2023-02-01T06:19:02.647Z,33.08
2023-02-01T06:21:31.643Z,33.00
2023-02-01T06:24:00.959Z,34.38
2023-02-01T06:26:30.680Z,33.45
2023-02-01T06:28:59.538Z,31.58
2023-02-01T06:31:28.551Z,33.35
2023-02-01T06:33:57.418Z,34.05
2023-02-01T06:36:26.364Z,32.22
2023-02-01T06:38:55.397Z,32.53
2023-02-01T06:41:29.354Z,31.80
2023-02-01T06:43:58.746Z,32.70
2023-02-01T06:46:27.831Z,32.03
2023-02-01T06:48:57.024Z,32.10
2023-02-01T06:51:29.268Z,32.45
2023-02-01T06:53:58.857Z,33.30
2023-02-01T06:56:28.312Z,32.13
2023-02-01T06:58:57.797Z,31.98
2023-02-01T07:01:26.951Z,31.13
2023-02-01T07:03:55.874Z,30.55
2023-02-01T07:06:27.752Z,31.85
2023-02-01T07:08:58.309Z,30.27
2023-02-01T07:11:30.319Z,30.55
2023-02-01T07:13:59.260Z,32.43
2023-02-01T07:16:28.579Z,31.20
2023-02-01T07:18:57.497Z,30.50
2023-02-01T07:21:26.321Z,31.08
2023-02-01T07:23:55.043Z,30.90
2023-02-01T07:26:24.176Z,30.60
2023-02-01T07:28:53.627Z,30.95
2023-02-01T07:31:27.509Z,31.00
2023-02-01T07:33:58.205Z,29.95
2023-02-01T07:36:36.822Z,30.38
2023-02-01T07:39:06.702Z,31.98
2023-02-01T07:41:36.512Z,33.90
2023-02-01T07:44:05.343Z,32.33
2023-02-01T07:46:34.215Z,30.27
2023-02-01T07:49:02.996Z,31.20
2023-02-01T07:51:31.738Z,31.48
2023-02-01T07:54:00.592Z,30.02
2023-02-01T07:56:29.481Z,30.92
2023-02-01T07:58:58.275Z,31.75
2023-02-01T08:01:31.567Z,30.85
2023-02-01T08:04:03.480Z,31.40
2023-02-01T08:06:34.680Z,30.70
2023-02-01T08:09:04.261Z,28.60
2023-02-01T08:11:34.066Z,29.90
2023-02-01T08:14:03.002Z,31.50
2023-02-01T08:16:31.883Z,31.17
2023-02-01T08:19:00.641Z,30.25
2023-02-01T08:21:38.446Z,31.33
2023-02-01T08:24:08.391Z,29.85
2023-02-01T08:26:37.347Z,29.67
2023-02-01T08:29:08.961Z,29.35
2023-02-01T08:31:38.000Z,29.17
2023-02-01T08:34:06.855Z,27.70
2023-02-01T08:36:35.762Z,29.10
2023-02-01T08:39:07.725Z,31.00
2023-02-01T08:41:36.700Z,30.10
2023-02-01T08:44:05.712Z,30.80
2023-02-01T08:46:34.659Z,28.98
2023-02-01T08:49:03.400Z,29.85
2023-02-01T08:51:32.257Z,31.40
2023-02-01T08:54:01.099Z,28.02
2023-02-01T08:56:30.088Z,31.20
2023-02-01T08:58:59.048Z,30.35
2023-02-01T09:01:29.346Z,30.98
2023-02-01T09:03:58.438Z,31.15
2023-02-01T09:06:27.364Z,31.58
2023-02-01T09:08:56.354Z,32.22
2023-02-01T09:11:25.385Z,30.95
2023-02-01T09:13:54.364Z,31.08
2023-02-01T09:16:26.477Z,30.88
2023-02-01T09:19:07.888Z,31.05
2023-02-01T09:21:46.440Z,32.03
2023-02-01T09:24:16.373Z,30.08
2023-02-01T09:26:45.221Z,32.58
2023-02-01T09:29:14.094Z,32.30
2023-02-01T09:31:49.867Z,32.42
2023-02-01T09:34:26.818Z,32.03
2023-02-01T09:36:55.744Z,33.40
2023-02-01T09:39:25.418Z,34.00
2023-02-01T09:41:57.402Z,34.65
2023-02-01T09:44:46.023Z,35.40
2023-02-01T09:47:18.552Z,33.78
2023-02-01T09:49:52.515Z,33.88
2023-02-01T09:52:33.597Z,34.60
2023-02-01T09:55:12.905Z,35.65
2023-02-01T09:57:56.442Z,35.03
2023-02-01T10:00:29.835Z,35.40
2023-02-01T10:02:59.514Z,34.72
2023-02-01T10:05:57.505Z,34.92
2023-02-01T10:08:50.288Z,34.97
2023-02-01T10:11:32.743Z,35.25
2023-02-01T10:14:15.654Z,34.85
2023-02-01T10:19:42.044Z,37.30
2023-02-01T10:22:17.289Z,38.30
2023-02-01T10:24:51.240Z,36.63
2023-02-01T10:27:24.433Z,36.85
2023-02-01T10:29:57.732Z,37.60
2023-02-01T10:32:32.948Z,37.08
2023-02-01T10:35:05.526Z,39.05
2023-02-01T10:37:36.366Z,36.65
2023-02-01T10:40:26.674Z,39.22
2023-02-01T10:43:01.233Z,36.78
2023-02-01T10:45:33.230Z,37.40
2023-02-01T10:48:04.752Z,36.77
2023-02-01T10:51:03.304Z,36.58
2023-02-01T10:53:44.943Z,37.80
2023-02-01T10:56:15.413Z,37.05
2023-02-01T10:58:49.418Z,37.67
2023-02-01T11:01:23.614Z,37.40
2023-02-01T11:04:03.546Z,37.97
2023-02-01T11:06:34.892Z,37.60
2023-02-01T11:09:12.778Z,38.35
2023-02-01T11:11:59.890Z,37.30
2023-02-01T11:14:29.652Z,36.88
2023-02-01T11:17:03.043Z,35.88
2023-02-01T11:19:32.521Z,34.20
2023-02-01T11:22:02.978Z,34.00
2023-02-01T11:24:36.982Z,34.60
2023-02-01T11:27:18.830Z,35.30
2023-02-01T11:30:00.455Z,34.85
2023-02-01T11:32:30.103Z,35.35
2023-02-01T11:35:08.881Z,34.95
2023-02-01T11:37:43.435Z,34.95
2023-02-01T11:40:20.921Z,35.38
2023-02-01T11:43:00.754Z,35.05
2023-02-01T11:45:35.825Z,34.60
2023-02-01T11:48:15.082Z,36.30
2023-02-01T11:51:08.211Z,35.77
2023-02-01T11:54:00.534Z,36.00
2023-02-01T11:56:47.370Z,35.38
2023-02-01T11:59:20.520Z,37.33
2023-02-01T12:01:57.453Z,36.55
2023-02-01T12:04:47.241Z,36.63
2023-02-01T12:07:29.394Z,36.95
2023-02-01T12:10:06.349Z,37.30
2023-02-01T12:12:42.523Z,38.00
2023-02-01T12:15:20.273Z,37.92
2023-02-01T12:18:01.917Z,37.67
2023-02-01T12:20:51.710Z,38.40
2023-02-01T12:23:44.203Z,40.20
2023-02-01T12:26:21.412Z,38.38
2023-02-01T12:29:11.287Z,39.28
2023-02-01T12:31:48.213Z,39.50
2023-02-01T12:34:26.863Z,41.40
2023-02-01T12:37:09.020Z,39.38
2023-02-01T12:40:02.649Z,38.33
2023-02-01T12:42:40.983Z,38.45
2023-02-01T12:45:20.126Z,38.67
2023-02-01T12:47:58.754Z,41.10
2023-02-01T12:50:39.388Z,40.13
2023-02-01T12:53:30.404Z,40.78
2023-02-01T12:56:06.246Z,41.05
2023-02-01T12:58:36.024Z,40.05
2023-02-01T13:01:10.653Z,41.30
2023-02-01T13:03:44.952Z,41.17
2023-02-01T13:06:21.719Z,41.25
2023-02-01T13:08:59.296Z,42.80
2023-02-01T13:11:40.599Z,43.72
2023-02-01T13:14:29.398Z,44.22
2023-02-01T13:17:05.408Z,47.05
2023-02-01T13:20:13.439Z,47.08
2023-02-01T13:22:46.191Z,44.55
2023-02-01T13:25:19.988Z,43.35
2023-02-01T13:27:49.221Z,40.78
2023-02-01T13:30:26.524Z,44.17
2023-02-01T13:33:53.600Z,43.13
2023-02-01T13:36:06.459Z,42.83
2023-02-01T13:38:57.029Z,44.70
2023-02-01T13:41:54.540Z,44.58
2023-02-01T13:44:35.863Z,45.05
2023-02-01T13:47:12.717Z,44.38
2023-02-01T13:49:43.149Z,43.58
2023-02-01T13:52:28.654Z,42.05
2023-02-01T13:55:26.560Z,44.63
2023-02-01T13:58:05.191Z,43.17
2023-02-01T14:00:38.719Z,42.53
2023-02-01T14:03:09.392Z,43.78
2023-02-01T14:05:39.991Z,45.22
2023-02-01T14:08:11.589Z,44.78
2023-02-01T14:10:59.379Z,41.90
2023-02-01T14:13:31.900Z,42.38
2023-02-01T14:16:10.139Z,45.72
2023-02-01T14:18:40.000Z,43.50
2023-02-01T14:21:28.778Z,43.78
2023-02-01T14:24:01.983Z,43.15
2023-02-01T14:26:38.731Z,45.58
2023-02-01T14:29:27.621Z,43.35
2023-02-01T14:32:05.940Z,46.60
2023-02-01T14:34:45.322Z,46.33
2023-02-01T14:37:23.927Z,47.78
2023-02-01T14:39:53.690Z,46.05
2023-02-01T14:42:28.984Z,46.63
2023-02-01T14:45:19.171Z,47.33
2023-02-01T14:48:08.185Z,47.70
2023-02-01T14:50:42.498Z,48.22
2023-02-01T14:53:20.974Z,49.67
2023-02-01T14:55:52.665Z,46.58
2023-02-01T14:58:32.252Z,49.00
2023-02-01T15:01:06.487Z,48.13
2023-02-01T15:03:58.812Z,48.97
2023-02-01T15:06:44.347Z,46.35
2023-02-01T15:09:29.612Z,43.00
2023-02-01T15:12:16.787Z,44.97
2023-02-01T15:14:51.153Z,43.45
2023-02-01T15:17:27.528Z,42.50
2023-02-01T15:19:58.156Z,42.92
2023-02-01T15:22:27.918Z,40.92
2023-02-01T15:24:58.808Z,43.15
2023-02-01T15:27:30.066Z,44.50
2023-02-01T15:30:10.009Z,38.58
2023-02-01T15:32:42.573Z,41.92
2023-02-01T15:35:37.516Z,39.58
2023-02-01T15:38:26.331Z,40.40
2023-02-01T15:41:15.533Z,40.35
2023-02-01T15:44:04.141Z,41.42
2023-02-01T15:46:44.589Z,40.53
2023-02-01T15:49:33.572Z,40.38
2023-02-01T15:52:04.100Z,41.20
2023-02-01T15:54:44.867Z,41.20
2023-02-01T15:57:13.973Z,40.38
2023-02-01T15:59:47.661Z,41.88
2023-02-01T16:02:46.171Z,42.22
2023-02-01T16:05:35.265Z,40.95
2023-02-01T16:08:12.707Z,40.88
2023-02-01T16:10:44.415Z,40.92
2023-02-01T16:13:13.756Z,42.42
2023-02-01T16:15:42.780Z,42.20
2023-02-01T16:18:12.319Z,40.13
2023-02-01T16:20:43.340Z,40.65
2023-02-01T16:23:12.751Z,40.58
2023-02-01T16:25:42.195Z,41.10
2023-02-01T16:28:11.196Z,42.85
2023-02-01T16:30:40.146Z,41.72
2023-02-01T16:33:17.067Z,42.92
2023-02-01T16:35:46.058Z,43.13
2023-02-01T16:38:17.193Z,40.78
2023-02-01T16:40:47.022Z,43.67
2023-02-01T16:43:23.126Z,43.13
2023-02-01T16:45:55.120Z,43.20
2023-02-01T16:48:28.883Z,42.97
2023-02-01T16:51:00.032Z,43.55
2023-02-01T16:53:33.048Z,44.30
2023-02-01T16:56:25.073Z,43.08
2023-02-01T16:58:55.248Z,42.63
2023-02-01T17:01:30.138Z,44.75
2023-02-01T17:03:59.031Z,43.55
2023-02-01T17:06:29.500Z,41.72
2023-02-01T17:09:00.109Z,43.17
2023-02-01T17:11:31.808Z,43.95
2023-02-01T17:14:17.235Z,44.08
2023-02-01T17:16:49.257Z,43.47
2023-02-01T17:19:24.859Z,43.83
2023-02-01T17:21:57.509Z,43.85
2023-02-01T17:24:47.638Z,42.33
2023-02-01T17:27:18.386Z,43.83
2023-02-01T17:29:48.245Z,43.85
2023-02-01T17:32:21.887Z,43.05
2023-02-01T17:34:51.208Z,42.28
2023-02-01T17:37:32.947Z,44.38
2023-02-01T17:40:02.660Z,44.50
2023-02-01T17:42:32.098Z,44.17
2023-02-01T17:45:13.883Z,47.88
2023-02-01T17:47:42.683Z,53.22
2023-02-01T17:50:12.247Z,55.13
2023-02-01T17:52:41.071Z,46.13
2023-02-01T17:55:20.333Z,45.35
2023-02-01T17:57:49.157Z,49.83
2023-02-01T18:00:19.384Z,51.88
2023-02-01T18:02:48.397Z,52.05
2023-02-01T18:05:23.919Z,54.42
2023-02-01T18:07:53.055Z,57.28
2023-02-01T18:10:21.943Z,55.65
2023-02-01T18:12:50.893Z,53.88
2023-02-01T18:15:22.559Z,54.80
2023-02-01T18:20:25.553Z,55.92
2023-02-01T18:22:54.907Z,58.63
2023-02-01T18:25:26.257Z,58.55
2023-02-01T18:27:57.097Z,62.42
2023-02-01T18:30:34.197Z,64.10
2023-02-01T18:33:03.370Z,64.47
2023-02-01T18:35:33.736Z,67.78
2023-02-01T18:38:02.722Z,67.30
2023-02-01T18:40:36.079Z,72.53
2023-02-01T18:43:05.222Z,78.15
2023-02-01T18:45:38.519Z,76.07
2023-02-01T18:48:09.326Z,73.47
2023-02-01T18:50:44.279Z,70.63
2023-02-01T18:53:20.948Z,77.93
2023-02-01T18:55:50.560Z,72.95
2023-02-01T18:58:19.720Z,76.80
2023-02-01T19:00:49.052Z,77.75
2023-02-01T19:03:19.545Z,77.38
2023-02-01T19:05:50.313Z,74.30
2023-02-01T19:08:18.998Z,73.95
2023-02-01T19:10:49.781Z,72.80
2023-02-01T19:13:21.741Z,73.72
2023-02-01T19:15:50.705Z,74.35
2023-02-01T19:18:21.313Z,71.07
2023-02-01T19:20:52.461Z,74.18
2023-02-01T19:23:21.617Z,80.22
2023-02-01T19:25:50.563Z,85.18
2023-02-01T19:28:19.373Z,82.07
2023-02-01T19:30:48.340Z,80.47
2023-02-01T19:33:18.310Z,84.85
2023-02-01T19:35:47.081Z,85.72
2023-02-01T19:38:15.871Z,88.68
2023-02-01T19:40:44.865Z,92.25
2023-02-01T19:43:13.589Z,92.72
2023-02-01T19:45:44.487Z,91.32
2023-02-01T19:48:14.305Z,87.88
2023-02-01T19:50:43.547Z,101.85
2023-02-01T19:53:12.697Z,108.13
2023-02-01T19:55:46.801Z,111.00
2023-02-01T19:58:15.760Z,116.32
2023-02-01T20:00:44.474Z,114.28
2023-02-01T20:03:13.490Z,114.13
2023-02-01T20:05:42.333Z,113.03
2023-02-01T20:08:14.740Z,118.97
2023-02-01T20:10:45.808Z,117.20
2023-02-01T20:13:15.401Z,115.15
2023-02-01T20:15:44.368Z,120.03
2023-02-01T20:18:13.601Z,117.68
2023-02-01T20:20:43.537Z,116.53
2023-02-01T20:23:12.416Z,120.00
2023-02-01T20:25:42.350Z,121.10
2023-02-01T20:28:11.143Z,116.90
2023-02-01T20:30:40.182Z,119.03
2023-02-01T20:33:09.057Z,118.10
2023-02-01T20:35:37.927Z,118.70
2023-02-01T20:38:06.657Z,125.25
2023-02-01T20:40:35.420Z,123.40
2023-02-01T20:43:04.211Z,122.75
2023-02-01T20:45:32.945Z,119.05
2023-02-01T20:48:01.758Z,117.35
2023-02-01T20:50:30.596Z,115.00
2023-02-01T20:52:59.332Z,121.22
2023-02-01T20:55:28.097Z,120.65
2023-02-01T20:57:56.941Z,122.57
2023-02-01T21:00:29.141Z,124.03
2023-02-01T21:02:58.049Z,122.30
2023-02-01T21:05:26.855Z,122.82
2023-02-01T21:07:55.623Z,118.70
2023-02-01T21:10:24.369Z,119.25
2023-02-01T21:13:03.891Z,112.07
2023-02-01T21:15:37.292Z,112.68
2023-02-01T21:18:10.038Z,111.45
2023-02-01T21:20:38.829Z,112.97
2023-02-01T21:23:07.696Z,112.43
2023-02-01T21:25:40.072Z,110.78
2023-02-01T21:28:09.268Z,113.15
2023-02-01T21:30:38.342Z,111.30
2023-02-01T21:33:08.825Z,112.47
2023-02-01T21:35:40.908Z,115.05
2023-02-01T21:38:10.974Z,114.03
2023-02-01T21:40:39.686Z,114.25
2023-02-01T21:43:08.605Z,113.13
2023-02-01T21:45:41.442Z,111.03
2023-02-01T21:48:12.364Z,113.22
2023-02-01T21:50:41.212Z,109.18
2023-02-01T21:53:09.989Z,107.03
2023-02-01T21:55:38.719Z,111.55
2023-02-01T21:58:13.516Z,106.82
2023-02-01T22:00:46.809Z,105.72
2023-02-01T22:03:16.050Z,104.68
2023-02-01T22:05:44.752Z,104.57
2023-02-01T22:08:13.575Z,107.32
2023-02-01T22:10:43.114Z,107.18
2023-02-01T22:13:12.505Z,103.32
2023-02-01T22:15:41.213Z,105.10
2023-02-01T22:18:10.083Z,103.85
2023-02-01T22:20:38.824Z,102.82
2023-02-01T22:23:07.548Z,100.45
2023-02-01T22:25:36.353Z,98.40
2023-02-01T22:28:32.227Z,96.63
2023-02-01T22:30:54.639Z,99.80
2023-02-01T22:33:23.570Z,101.50
2023-02-01T22:35:52.748Z,99.13
2023-02-01T22:38:21.525Z,99.45
2023-02-01T22:40:58.731Z,100.38
2023-02-01T22:43:28.280Z,98.22
2023-02-01T22:46:02.039Z,110.63
2023-02-01T22:48:32.327Z,136.25
2023-02-01T22:51:02.345Z,125.32
2023-02-01T22:53:32.390Z,122.38
2023-02-01T22:56:05.262Z,127.03
2023-02-01T22:58:36.894Z,120.00
2023-02-01T23:01:11.372Z,115.28
2023-02-01T23:03:42.665Z,114.82
2023-02-01T23:06:11.467Z,111.82
2023-02-01T23:08:41.453Z,105.70
2023-02-01T23:11:11.650Z,103.65
2023-02-01T23:13:41.348Z,102.72
2023-02-01T23:16:13.832Z,103.53
2023-02-01T23:18:43.178Z,101.50
2023-02-01T23:21:15.600Z,104.55
2023-02-01T23:23:54.071Z,101.22
2023-02-01T23:26:24.475Z,104.05
2023-02-01T23:28:56.242Z,99.03
2023-02-01T23:31:28.570Z,103.78
2023-02-01T23:33:57.911Z,103.53
2023-02-01T23:36:28.725Z,99.43
2023-02-01T23:38:58.392Z,105.05
2023-02-01T23:41:30.918Z,102.90
2023-02-01T23:43:59.696Z,100.00
2023-02-01T23:46:30.392Z,111.55
2023-02-01T23:49:00.112Z,113.60
2023-02-01T23:51:29.759Z,115.05
2023-02-01T23:53:59.503Z,117.13
2023-02-01T23:56:34.131Z,113.43
2023-02-01T23:59:04.955Z,113.25
